createdAt,value
2022-12-27T00:00:00.000Z,83.25
2022-12-27T00:15:00.000Z,83.53
2022-12-27T00:30:00.000Z,83.35
2022-12-27T00:45:00.000Z,83.17
2022-12-27T01:00:00.000Z,81.93
2022-12-27T01:15:00.000Z,81.15
2022-12-27T01:30:00.000Z,80.75
2022-12-27T01:45:00.000Z,80.01
2022-12-27T02:00:00.000Z,80.04
2022-12-27T02:15:00.000Z,81.75
2022-12-27T02:30:00.000Z,83.2
2022-12-27T02:45:00.000Z,83.8
2022-12-27T03:00:00.000Z,82.89
2022-12-27T03:15:00.000Z,82.66
2022-12-27T03:30:00.000Z,82.18
2022-12-27T03:45:00.000Z,82.57
2022-12-27T04:00:00.000Z,83.16
2022-12-27T04:15:00.000Z,83.64
2022-12-27T04:30:00.000Z,83.04
2022-12-27T04:45:00.000Z,80.84
2022-12-27T05:00:00.000Z,81.7
2022-12-27T05:15:00.000Z,82.11
2022-12-27T05:30:00.000Z,83.53
2022-12-27T05:45:00.000Z,83.74
2022-12-27T06:00:00.000Z,83.16
2022-12-27T06:15:00.000Z,81.14
2022-12-27T06:30:00.000Z,80.77
2022-12-27T06:45:00.000Z,80.31
2022-12-27T07:00:00.000Z,79.46
2022-12-27T07:15:00.000Z,80.27
2022-12-27T07:45:00.000Z,76.92
2022-12-27T07:45:00.000Z,75.7
2022-12-27T08:15:00.000Z,76.09
2022-12-27T08:15:00.000Z,75.96
2022-12-27T08:30:00.000Z,76.9
2022-12-27T08:45:00.000Z,76.89
2022-12-27T09:00:00.000Z,75.43
2022-12-27T09:15:00.000Z,73.92
2022-12-27T09:30:00.000Z,73.54
2022-12-27T09:45:00.000Z,74.01
2022-12-27T10:00:00.000Z,65.93
2022-12-27T10:15:00.000Z,63.8
2022-12-27T10:30:00.000Z,65.44
2022-12-27T10:45:00.000Z,66.55
2022-12-27T11:00:00.000Z,66.1
2022-12-27T11:15:00.000Z,64.77
2022-12-27T11:30:00.000Z,63.54
2022-12-27T11:45:00.000Z,62.18
2022-12-27T12:00:00.000Z,61.88
2022-12-27T12:15:00.000Z,60.44
2022-12-27T12:30:00.000Z,59.66
2022-12-27T12:45:00.000Z,63.15
2022-12-27T13:00:00.000Z,62.9
2022-12-27T13:15:00.000Z,63.1
2022-12-27T13:30:00.000Z,64.13
2022-12-27T13:45:00.000Z,66.4
2022-12-27T14:00:00.000Z,68.81
2022-12-27T14:15:00.000Z,69.46
2022-12-27T14:30:00.000Z,70.82
2022-12-27T14:45:00.000Z,71.66
2022-12-27T15:00:00.000Z,73.13
2022-12-27T15:15:00.000Z,74.45
2022-12-27T15:30:00.000Z,75.03
2022-12-27T15:45:00.000Z,76.59
2022-12-27T16:00:00.000Z,78.51
2022-12-27T16:15:00.000Z,78.69
2022-12-27T16:30:00.000Z,79.36
2022-12-27T16:45:00.000Z,80.19
2022-12-27T17:00:00.000Z,80.73
2022-12-27T17:15:00.000Z,81.24
2022-12-27T17:30:00.000Z,81.93
2022-12-27T17:45:00.000Z,81.63
2022-12-27T18:00:00.000Z,81.98
2022-12-27T18:15:00.000Z,81.95
2022-12-27T18:30:00.000Z,82.07
2022-12-27T18:45:00.000Z,81.41
2022-12-27T19:00:00.000Z,81.25
2022-12-27T19:15:00.000Z,81.21
2022-12-27T19:30:00.000Z,80.67
2022-12-27T19:45:00.000Z,80.75
2022-12-27T20:00:00.000Z,80.53
2022-12-27T20:15:00.000Z,79.85
2022-12-27T20:30:00.000Z,79.69
2022-12-27T20:45:00.000Z,79.79
2022-12-27T21:00:00.000Z,79.81
2022-12-27T21:15:00.000Z,79.8
2022-12-27T21:30:00.000Z,79.39
2022-12-27T21:45:00.000Z,79.4
2022-12-27T22:00:00.000Z,79.55
2022-12-27T22:15:00.000Z,79.78
2022-12-27T22:30:00.000Z,79.82
2022-12-27T22:45:00.000Z,80.37
2022-12-27T23:00:00.000Z,81.19
2022-12-27T23:15:00.000Z,81.87
2022-12-27T23:30:00.000Z,82.47
2022-12-27T23:45:00.000Z,82.54
